createdAt,value
2023-02-26T00:02:04.410Z,99539.37
2023-02-26T00:04:34.909Z,99553.94
2023-02-26T00:07:06.376Z,99552.60
2023-02-26T00:09:36.837Z,99557.83
2023-02-26T00:12:07.633Z,99572.07
2023-02-26T00:14:38.296Z,99565.07
2023-02-26T00:17:20.958Z,99570.50
2023-02-26T00:19:51.654Z,99577.80
2023-02-26T00:22:22.845Z,99580.84
2023-02-26T00:24:53.560Z,99592.61
2023-02-26T00:27:24.109Z,99580.87
2023-02-26T00:29:56.414Z,99584.94
2023-02-26T00:32:27.156Z,99588.95
2023-02-26T00:34:59.389Z,99579.78
2023-02-26T00:37:41.972Z,99593.28
2023-02-26T00:40:21.381Z,99590.53
2023-02-26T00:42:52.209Z,99591.56
2023-02-26T00:45:23.144Z,99603.21
2023-02-26T00:47:59.508Z,99602.05
2023-02-26T00:50:32.164Z,99610.79
2023-02-26T00:53:11.615Z,99607.95
2023-02-26T00:55:43.328Z,99611.77
2023-02-26T00:58:13.911Z,99613.37
2023-02-26T01:00:44.408Z,99610.31
2023-02-26T01:03:15.066Z,99614.91
2023-02-26T01:05:46.225Z,99611.40
2023-02-26T01:08:22.835Z,99615.34
2023-02-26T01:10:53.832Z,99629.27
2023-02-26T01:13:24.729Z,99624.40
2023-02-26T01:15:59.371Z,99624.20
2023-02-26T01:18:41.584Z,99627.63
2023-02-26T01:21:15.023Z,99636.42
2023-02-26T01:23:48.357Z,99631.39
2023-02-26T01:26:28.084Z,99644.63
2023-02-26T01:28:58.952Z,99641.05
2023-02-26T01:31:41.537Z,99640.78
2023-02-26T01:34:31.647Z,99649.55
2023-02-26T01:37:08.029Z,99648.92
2023-02-26T01:39:58.898Z,99657.56
2023-02-26T01:42:33.504Z,99655.12
2023-02-26T01:45:06.916Z,99659.27
2023-02-26T01:47:42.988Z,99665.15
2023-02-26T01:50:19.462Z,99668.30
2023-02-26T01:52:52.831Z,99672.62
2023-02-26T01:55:26.543Z,99680.47
2023-02-26T01:58:00.205Z,99681.45
2023-02-26T02:00:32.550Z,99688.09
2023-02-26T02:03:03.665Z,99699.02
2023-02-26T02:05:53.841Z,99703.69
2023-02-26T02:08:24.943Z,99697.42
2023-02-26T02:10:56.112Z,99706.51
2023-02-26T02:13:46.020Z,99712.09
2023-02-26T02:16:37.543Z,99705.02
2023-02-26T02:19:20.022Z,99713.28
2023-02-26T02:21:57.339Z,99718.02
2023-02-26T02:24:59.549Z,99726.17
2023-02-26T02:27:49.276Z,99735.08
2023-02-26T02:30:25.765Z,99724.98
2023-02-26T02:33:02.135Z,99741.24
2023-02-26T02:35:41.826Z,99743.59
2023-02-26T02:38:24.548Z,99748.22
2023-02-26T02:40:57.979Z,99752.06
2023-02-26T02:43:31.351Z,99755.84
2023-02-26T02:46:10.674Z,99757.70
2023-02-26T02:48:46.502Z,99756.27
2023-02-26T02:51:21.492Z,99763.91
2023-02-26T02:54:09.817Z,99769.30
2023-02-26T02:57:01.335Z,99767.56
2023-02-26T02:59:34.678Z,99772.08
2023-02-26T03:02:18.609Z,99772.19
2023-02-26T03:04:49.892Z,99779.59
2023-02-26T03:07:20.649Z,99779.69
2023-02-26T03:09:52.555Z,99780.09
2023-02-26T03:12:23.173Z,99786.16
2023-02-26T03:14:53.907Z,99787.64
2023-02-26T03:17:45.121Z,99793.08
2023-02-26T03:20:18.503Z,99799.78
2023-02-26T03:23:11.537Z,99807.88
2023-02-26T03:26:00.097Z,99820.80
2023-02-26T03:29:02.389Z,99823.59
2023-02-26T03:31:38.478Z,99820.14
2023-02-26T03:34:11.933Z,99833.70
2023-02-26T03:36:48.780Z,99845.11
2023-02-26T03:39:24.847Z,99841.76
2023-02-26T03:42:16.163Z,99848.30
2023-02-26T03:44:49.521Z,99853.33
2023-02-26T03:47:20.405Z,99855.85
2023-02-26T03:49:56.336Z,99847.56
2023-02-26T03:52:30.004Z,99858.59
2023-02-26T03:55:04.757Z,99854.84
2023-02-26T03:57:35.669Z,99867.84
2023-02-26T04:00:07.952Z,99867.00
2023-02-26T04:02:46.936Z,99865.64
2023-02-26T04:05:20.770Z,99870.35
2023-02-26T04:07:51.543Z,99891.34
2023-02-26T04:10:24.880Z,99888.33
2023-02-26T04:12:56.163Z,99894.23
2023-02-26T04:15:26.648Z,99889.50
2023-02-26T04:17:57.173Z,99902.83
2023-02-26T04:20:27.619Z,99865.42
2023-02-26T04:22:58.125Z,99910.41
2023-02-26T04:25:28.616Z,99920.23
2023-02-26T04:27:59.169Z,99920.19
2023-02-26T04:30:30.875Z,99919.50
2023-02-26T04:33:01.377Z,99929.61
2023-02-26T04:35:31.823Z,99930.03
2023-02-26T04:38:02.261Z,99930.83
2023-02-26T04:40:32.847Z,99938.81
2023-02-26T04:43:03.375Z,99934.00
2023-02-26T04:45:33.842Z,99929.57
2023-02-26T04:48:05.389Z,99943.89
2023-02-26T04:50:35.872Z,99946.05
2023-02-26T04:53:06.340Z,99941.08
2023-02-26T04:55:39.187Z,99949.00
2023-02-26T04:58:10.030Z,99942.96
2023-02-26T05:00:40.476Z,99955.30
2023-02-26T05:03:11.238Z,99945.03
2023-02-26T05:05:41.734Z,99945.09
2023-02-26T05:08:13.400Z,99954.36
2023-02-26T05:10:43.881Z,99950.38
2023-02-26T05:13:14.432Z,99955.39
2023-02-26T05:15:44.981Z,99966.84
2023-02-26T05:18:15.585Z,99963.64
2023-02-26T05:20:46.119Z,99972.78
2023-02-26T05:23:16.602Z,99985.53
2023-02-26T05:25:48.703Z,99978.72
2023-02-26T05:28:19.328Z,99993.23
2023-02-26T05:30:49.828Z,99999.61
2023-02-26T05:33:20.608Z,100011.56
2023-02-26T05:35:51.190Z,100006.44
2023-02-26T05:38:21.600Z,100004.02
2023-02-26T05:40:52.051Z,100006.30
2023-02-26T05:43:22.778Z,100013.94
2023-02-26T05:45:54.560Z,100019.77
2023-02-26T05:48:26.143Z,100030.55
2023-02-26T05:50:56.632Z,100038.52
2023-02-26T05:53:27.071Z,100042.73
2023-02-26T05:55:57.639Z,100042.56
2023-02-26T05:58:28.115Z,100052.48
2023-02-26T06:01:00.468Z,100071.33
2023-02-26T06:03:30.896Z,100061.51
2023-02-26T06:06:01.386Z,100061.76
2023-02-26T06:08:33.141Z,100071.00
2023-02-26T06:11:04.912Z,100074.35
2023-02-26T06:13:35.373Z,100076.08
2023-02-26T06:16:06.250Z,100078.88
2023-02-26T06:18:36.769Z,100084.37
2023-02-26T06:21:09.604Z,100087.95
2023-02-26T06:23:40.244Z,100093.41
2023-02-26T06:26:11.018Z,100098.09
2023-02-26T06:28:41.964Z,100097.16
2023-02-26T06:31:12.930Z,100105.81
2023-02-26T06:33:43.464Z,100110.66
2023-02-26T06:36:14.339Z,100110.51
2023-02-26T06:38:45.697Z,100119.89
2023-02-26T06:41:16.167Z,100125.00
2023-02-26T06:43:46.681Z,100138.03
2023-02-26T06:46:17.326Z,100130.05
2023-02-26T06:48:47.803Z,100138.22
2023-02-26T06:51:18.277Z,100140.73
2023-02-26T06:53:48.749Z,100146.63
2023-02-26T06:56:19.231Z,100155.68
2023-02-26T06:58:49.705Z,100157.74
2023-02-26T07:01:20.675Z,100156.48
2023-02-26T07:03:51.437Z,100167.11
2023-02-26T07:06:27.674Z,100159.48
2023-02-26T07:08:54.316Z,100171.78
2023-02-26T07:11:26.198Z,100177.81
2023-02-26T07:13:56.871Z,100183.34
2023-02-26T07:16:29.061Z,100178.84
2023-02-26T07:18:59.784Z,100179.64
2023-02-26T07:21:30.405Z,100184.51
2023-02-26T07:24:00.931Z,100196.59
2023-02-26T07:26:31.385Z,100200.88
2023-02-26T07:29:01.869Z,100199.44
2023-02-26T07:31:32.525Z,100208.87
2023-02-26T07:34:03.571Z,100208.81
2023-02-26T07:36:34.431Z,100206.82
2023-02-26T07:39:04.997Z,100215.45
2023-02-26T07:41:36.595Z,100222.30
2023-02-26T07:44:07.051Z,100225.44
2023-02-26T07:46:37.551Z,100234.83
2023-02-26T07:49:10.012Z,100242.03
2023-02-26T07:51:41.207Z,100236.08
2023-02-26T07:54:13.725Z,100246.95
2023-02-26T07:56:45.545Z,100247.19
2023-02-26T07:59:16.490Z,100255.11
2023-02-26T08:01:47.160Z,100254.55
2023-02-26T08:04:18.002Z,100253.80
2023-02-26T08:06:56.180Z,100268.69
2023-02-26T08:09:44.061Z,100273.78
2023-02-26T08:12:14.623Z,100273.02
2023-02-26T08:14:45.101Z,100283.88
2023-02-26T08:17:15.981Z,100273.05
2023-02-26T08:19:46.434Z,100285.11
2023-02-26T08:22:18.171Z,100278.91
2023-02-26T08:24:48.647Z,100294.57
2023-02-26T08:27:19.215Z,100289.02
2023-02-26T08:29:50.525Z,100292.80
2023-02-26T08:32:23.254Z,100297.82
2023-02-26T08:34:55.812Z,100304.45
2023-02-26T08:37:26.411Z,100310.27
2023-02-26T08:39:57.057Z,100315.83
2023-02-26T08:42:27.618Z,100320.73
2023-02-26T08:44:58.089Z,100322.42
2023-02-26T08:47:29.307Z,100320.84
2023-02-26T08:50:00.039Z,100328.70
2023-02-26T08:52:30.646Z,100334.83
2023-02-26T08:55:01.130Z,100346.34
2023-02-26T08:57:31.625Z,100342.58
2023-02-26T09:00:02.060Z,100352.91
2023-02-26T09:02:32.618Z,100358.50
2023-02-26T09:05:03.233Z,100363.02
2023-02-26T09:07:34.011Z,100362.01
2023-02-26T09:10:04.671Z,100369.59
2023-02-26T09:12:37.260Z,100384.73
2023-02-26T09:15:10.754Z,100377.31
2023-02-26T09:17:41.593Z,100379.03
2023-02-26T09:20:13.986Z,100385.59
2023-02-26T09:22:45.756Z,100337.87
2023-02-26T09:25:16.389Z,100403.39
2023-02-26T09:27:48.190Z,100402.98
2023-02-26T09:30:18.756Z,100412.54
2023-02-26T09:32:49.346Z,100410.45
2023-02-26T09:35:19.830Z,100415.91
2023-02-26T09:37:51.649Z,100425.52
2023-02-26T09:40:49.155Z,100431.47
2023-02-26T09:43:26.921Z,100431.33
2023-02-26T09:46:00.371Z,100442.47
2023-02-26T09:48:33.807Z,100451.54
2023-02-26T09:51:05.085Z,100461.42
2023-02-26T09:53:38.918Z,100460.33
2023-02-26T09:56:21.292Z,100466.05
2023-02-26T09:58:55.446Z,100460.50
2023-02-26T10:01:34.878Z,100471.24
2023-02-26T10:04:34.270Z,100478.41
2023-02-26T10:07:19.653Z,100476.88
2023-02-26T10:10:20.689Z,100485.36
2023-02-26T10:12:53.742Z,100494.56
2023-02-26T10:15:29.965Z,100498.95
2023-02-26T10:18:21.555Z,100498.12
2023-02-26T10:21:01.326Z,100507.17
2023-02-26T10:23:43.353Z,100509.86
2023-02-26T10:26:21.492Z,100514.67
2023-02-26T10:28:57.485Z,100505.23
2023-02-26T10:31:45.899Z,100509.25
2023-02-26T10:34:40.423Z,100505.80
2023-02-26T10:37:19.944Z,100511.95
2023-02-26T10:40:19.335Z,100516.25
2023-02-26T10:42:55.387Z,100528.45
2023-02-26T10:46:03.641Z,100527.01
2023-02-26T10:48:47.646Z,100528.47
2023-02-26T10:51:24.567Z,100533.82
2023-02-26T10:53:58.352Z,100543.30
2023-02-26T10:56:34.058Z,100537.09
2023-02-26T10:59:04.876Z,100548.59
2023-02-26T11:01:35.492Z,100548.59
2023-02-26T11:04:11.771Z,100547.95
2023-02-26T11:07:00.644Z,100549.86
2023-02-26T11:09:42.320Z,100557.59
2023-02-26T11:12:21.250Z,100548.69
2023-02-26T11:14:52.370Z,100550.44
2023-02-26T11:17:28.345Z,100558.87
2023-02-26T11:20:05.497Z,100568.51
2023-02-26T11:22:37.445Z,100572.34
2023-02-26T11:25:11.271Z,100578.11
2023-02-26T11:27:46.010Z,100583.59
2023-02-26T11:30:19.281Z,100588.84
2023-02-26T11:32:54.591Z,100571.66
2023-02-26T11:35:26.518Z,100571.66
2023-02-26T11:38:00.292Z,100589.55
2023-02-26T11:40:42.641Z,100595.80
2023-02-26T11:43:16.017Z,100603.29
2023-02-26T11:45:55.794Z,100600.59
2023-02-26T11:48:29.641Z,100593.88
2023-02-26T11:51:02.389Z,100601.41
2023-02-26T11:53:35.793Z,100602.30
2023-02-26T11:56:09.269Z,100602.89
2023-02-26T11:58:41.629Z,100613.99
2023-02-26T12:01:14.172Z,100609.65
2023-02-26T12:03:47.699Z,100607.73
2023-02-26T12:06:24.902Z,100589.88
2023-02-26T12:08:55.660Z,100595.81
2023-02-26T12:11:55.622Z,100602.97
2023-02-26T12:14:29.001Z,100611.47
2023-02-26T12:17:20.602Z,100619.32
2023-02-26T12:20:04.687Z,100628.70
2023-02-26T12:22:55.621Z,100633.73
2023-02-26T12:25:48.783Z,100646.77
2023-02-26T12:28:58.675Z,100643.09
2023-02-26T12:31:54.852Z,100636.23
2023-02-26T12:34:35.506Z,100639.77
2023-02-26T12:37:31.807Z,100644.59
2023-02-26T12:40:17.523Z,100642.55
2023-02-26T12:42:59.652Z,100661.97
2023-02-26T12:46:02.759Z,100654.63
2023-02-26T12:49:07.227Z,100661.38
2023-02-26T12:51:40.595Z,100671.30
2023-02-26T12:54:44.620Z,100668.02
2023-02-26T12:57:36.018Z,100671.31
2023-02-26T13:00:18.405Z,100682.12
2023-02-26T13:02:54.868Z,100678.89
2023-02-26T13:05:35.503Z,100682.16
2023-02-26T13:08:11.837Z,100687.06
2023-02-26T13:11:19.111Z,100683.12
2023-02-26T13:13:58.394Z,100688.22
2023-02-26T13:16:52.921Z,100692.03
2023-02-26T13:19:38.539Z,100690.64
2023-02-26T13:22:17.564Z,100695.59
2023-02-26T13:25:06.930Z,100690.64
2023-02-26T13:27:39.848Z,100685.48
2023-02-26T13:30:25.173Z,100695.30
2023-02-26T13:32:58.746Z,100700.47
2023-02-26T13:35:35.202Z,100703.91
2023-02-26T13:38:08.681Z,100703.20
2023-02-26T13:40:54.084Z,100710.20
2023-02-26T13:43:33.208Z,100708.79
2023-02-26T13:46:41.182Z,100714.80
2023-02-26T13:49:29.856Z,100713.73
2023-02-26T13:52:00.329Z,100714.95
2023-02-26T13:54:36.472Z,100715.60
2023-02-26T13:57:37.235Z,100725.98
2023-02-26T14:00:36.210Z,100727.57
2023-02-26T14:03:19.936Z,100735.34
2023-02-26T14:05:56.808Z,100740.25
2023-02-26T14:08:41.583Z,100748.76
2023-02-26T14:11:40.772Z,100752.21
2023-02-26T14:14:25.753Z,100746.91
2023-02-26T14:16:59.280Z,100748.75
2023-02-26T14:19:41.564Z,100740.90
2023-02-26T14:22:26.100Z,100741.50
2023-02-26T14:25:15.472Z,100743.22
2023-02-26T14:27:48.042Z,100751.87
2023-02-26T14:30:30.521Z,100749.91
2023-02-26T14:33:07.526Z,100755.70
2023-02-26T14:35:46.992Z,100754.30
2023-02-26T14:38:36.187Z,100759.13
2023-02-26T14:41:14.499Z,100763.98
2023-02-26T14:43:48.132Z,100770.08
2023-02-26T14:46:21.032Z,100773.66
2023-02-26T14:48:52.643Z,100772.78
2023-02-26T14:51:32.217Z,100773.33
2023-02-26T14:54:08.943Z,100778.86
2023-02-26T14:56:54.934Z,100787.91
2023-02-26T14:59:42.592Z,100796.70
2023-02-26T15:02:35.896Z,100791.20
2023-02-26T15:05:24.647Z,100795.26
2023-02-26T15:08:17.602Z,100809.87
2023-02-26T15:11:12.183Z,100807.41
2023-02-26T15:13:51.176Z,100807.19
2023-02-26T15:16:31.416Z,100806.59
2023-02-26T15:19:07.799Z,100817.79
2023-02-26T15:21:50.415Z,100811.47
2023-02-26T15:24:21.646Z,100818.92
2023-02-26T15:26:58.157Z,100829.66
2023-02-26T15:29:29.481Z,100818.62
2023-02-26T15:32:04.263Z,100815.41
2023-02-26T15:34:34.901Z,100824.81
2023-02-26T15:37:05.491Z,100827.40
2023-02-26T15:39:36.082Z,100838.86
2023-02-26T15:42:08.181Z,100839.08
2023-02-26T15:44:47.965Z,100838.52
2023-02-26T15:47:11.873Z,100840.42
2023-02-26T15:49:45.375Z,100844.77
2023-02-26T15:52:20.024Z,100835.88
2023-02-26T15:54:53.528Z,100843.25
2023-02-26T15:57:27.046Z,100854.77
2023-02-26T16:00:04.654Z,100847.49
2023-02-26T16:02:35.214Z,100849.98
2023-02-26T16:05:06.454Z,100855.00
2023-02-26T16:07:37.050Z,100866.91
2023-02-26T16:10:10.606Z,100872.78
2023-02-26T16:12:44.086Z,100877.53
2023-02-26T16:15:17.560Z,100873.14
2023-02-26T16:17:51.346Z,100883.13
2023-02-26T16:20:27.920Z,100880.06
2023-02-26T16:23:07.122Z,100883.13
2023-02-26T16:25:44.235Z,100884.88
2023-02-26T16:28:17.860Z,100894.42
2023-02-26T16:30:54.138Z,100895.33
2023-02-26T16:33:28.008Z,100903.75
2023-02-26T16:36:07.841Z,100910.34
2023-02-26T16:38:50.182Z,100915.59
2023-02-26T16:41:23.894Z,100923.23
2023-02-26T16:44:00.255Z,100909.53
2023-02-26T16:46:46.209Z,100925.36
2023-02-26T16:49:25.559Z,100932.25
2023-02-26T16:51:58.715Z,100939.78
2023-02-26T16:54:36.026Z,100937.25
2023-02-26T16:57:09.400Z,100950.09
2023-02-26T16:59:43.411Z,100944.77
2023-02-26T17:02:19.776Z,100961.23
2023-02-26T17:04:53.547Z,100961.71
2023-02-26T17:07:33.741Z,100966.68
2023-02-26T17:10:20.871Z,100959.77
2023-02-26T17:12:54.409Z,100968.07
2023-02-26T17:15:33.771Z,100973.48
2023-02-26T17:18:04.661Z,100970.21
2023-02-26T17:20:36.261Z,100973.70
2023-02-26T17:23:09.473Z,100979.83
2023-02-26T17:25:45.539Z,100988.05
2023-02-26T17:28:20.517Z,100992.03
2023-02-26T17:30:51.109Z,100996.20
2023-02-26T17:33:22.431Z,100995.41
2023-02-26T17:35:55.469Z,100996.27
2023-02-26T17:38:25.917Z,101000.38
2023-02-26T17:40:58.076Z,101003.53
2023-02-26T17:43:29.136Z,101012.97
2023-02-26T17:46:00.274Z,101011.20
2023-02-26T17:48:31.946Z,101001.18
2023-02-26T17:51:02.460Z,101009.05
2023-02-26T17:53:34.504Z,101010.27
2023-02-26T17:56:07.405Z,101013.04
2023-02-26T17:58:37.878Z,101017.59
2023-02-26T18:01:10.912Z,101015.94
2023-02-26T18:03:41.778Z,101008.09
2023-02-26T18:06:15.871Z,101013.85
2023-02-26T18:08:48.177Z,101007.59
2023-02-26T18:11:20.555Z,101004.98
2023-02-26T18:13:52.943Z,101019.52
2023-02-26T18:16:42.953Z,101015.59
2023-02-26T18:19:15.616Z,101015.14
2023-02-26T18:21:46.154Z,101015.77
2023-02-26T18:24:16.722Z,101016.03
2023-02-26T18:26:47.236Z,101022.33
2023-02-26T18:29:17.688Z,101021.43
2023-02-26T18:31:48.380Z,101025.32
2023-02-26T18:34:19.004Z,101029.50
2023-02-26T18:36:49.657Z,101033.16
2023-02-26T18:39:21.869Z,101027.94
2023-02-26T18:41:53.577Z,101024.81
2023-02-26T18:44:24.116Z,101026.48
2023-02-26T18:46:55.171Z,101038.52
2023-02-26T18:49:25.671Z,101039.46
2023-02-26T18:51:56.268Z,101052.78
2023-02-26T18:54:27.962Z,101048.20
2023-02-26T18:56:59.123Z,101057.27
2023-02-26T18:59:31.308Z,101057.95
2023-02-26T19:02:03.279Z,101061.95
2023-02-26T19:04:35.766Z,101059.54
2023-02-26T19:07:06.731Z,101069.83
2023-02-26T19:09:37.470Z,101078.05
2023-02-26T19:12:11.000Z,101077.73
2023-02-26T19:14:42.511Z,101080.13
2023-02-26T19:17:13.042Z,101080.58
2023-02-26T19:19:44.735Z,101086.66
2023-02-26T19:22:17.038Z,101088.75
2023-02-26T19:24:47.875Z,101082.30
2023-02-26T19:27:18.639Z,101001.56
2023-02-26T19:29:49.436Z,101099.91
2023-02-26T19:32:20.247Z,101090.79
2023-02-26T19:34:50.977Z,101095.90
2023-02-26T19:37:21.561Z,101109.50
2023-02-26T19:39:52.293Z,101099.09
2023-02-26T19:42:24.817Z,101103.41
2023-02-26T19:44:55.599Z,101103.58
2023-02-26T19:47:26.106Z,101098.27
2023-02-26T19:49:56.727Z,101110.00
2023-02-26T19:52:28.413Z,101108.97
2023-02-26T19:55:00.529Z,101113.92
2023-02-26T19:57:31.332Z,101115.83
2023-02-26T20:00:03.469Z,101124.98
2023-02-26T20:02:34.411Z,101131.07
2023-02-26T20:05:05.890Z,101131.07
2023-02-26T20:07:36.722Z,101134.34
2023-02-26T20:10:08.436Z,101136.27
2023-02-26T20:12:39.188Z,101141.58
2023-02-26T20:15:10.571Z,101141.05
2023-02-26T20:17:41.098Z,101154.38
2023-02-26T20:20:12.805Z,101150.12
2023-02-26T20:22:43.439Z,101148.12
2023-02-26T20:25:15.752Z,101155.34
2023-02-26T20:27:46.456Z,101151.06
2023-02-26T20:30:17.713Z,101153.95
2023-02-26T20:32:48.685Z,101159.60
2023-02-26T20:35:19.703Z,101157.63
2023-02-26T20:37:51.404Z,101158.05
2023-02-26T20:40:22.186Z,101156.40
2023-02-26T20:42:54.068Z,101158.69
2023-02-26T20:45:25.829Z,101155.53
2023-02-26T20:47:56.438Z,101151.95
2023-02-26T20:50:26.939Z,101157.84
2023-02-26T20:52:57.683Z,101164.24
2023-02-26T20:55:28.505Z,101170.63
2023-02-26T20:57:59.266Z,101171.95
2023-02-26T21:00:30.487Z,101174.30
2023-02-26T21:03:01.158Z,101166.14
2023-02-26T21:05:31.734Z,101166.39
2023-02-26T21:08:04.340Z,101168.39
2023-02-26T21:10:35.019Z,101178.57
2023-02-26T21:13:05.500Z,101181.71
2023-02-26T21:15:36.473Z,101181.95
2023-02-26T21:18:07.115Z,101175.78
2023-02-26T21:20:37.747Z,101183.35
2023-02-26T21:23:08.474Z,101174.80
2023-02-26T21:25:40.178Z,101186.13
2023-02-26T21:28:10.678Z,101180.24
2023-02-26T21:30:41.285Z,101191.36
2023-02-26T21:33:11.880Z,101191.09
2023-02-26T21:35:43.448Z,101186.75
2023-02-26T21:38:13.910Z,101192.59
2023-02-26T21:40:44.407Z,101201.45
2023-02-26T21:43:15.175Z,101206.74
2023-02-26T21:45:49.526Z,101203.08
2023-02-26T21:48:19.971Z,101207.17
2023-02-26T21:50:52.206Z,101214.70
2023-02-26T21:53:22.997Z,101204.77
2023-02-26T21:55:53.479Z,101210.70
2023-02-26T21:58:23.959Z,101216.70
2023-02-26T22:00:54.620Z,101227.61
2023-02-26T22:03:25.132Z,101231.33
2023-02-26T22:05:55.710Z,101231.30
2023-02-26T22:08:27.300Z,101227.61
2023-02-26T22:10:58.820Z,101222.34
2023-02-26T22:13:29.261Z,101225.73
2023-02-26T22:15:59.747Z,101227.27
2023-02-26T22:18:30.194Z,101228.36
2023-02-26T22:21:01.818Z,101230.06
2023-02-26T22:23:32.272Z,101236.78
2023-02-26T22:26:02.757Z,101236.77
2023-02-26T22:28:33.281Z,101236.87
2023-02-26T22:31:04.970Z,101238.56
2023-02-26T22:33:35.630Z,101250.20
2023-02-26T22:36:06.465Z,101249.50
2023-02-26T22:38:36.911Z,101253.31
2023-02-26T22:41:07.589Z,101257.37
2023-02-26T22:43:38.033Z,101261.88
2023-02-26T22:46:08.573Z,101262.51
2023-02-26T22:48:39.076Z,101260.05
2023-02-26T22:51:09.565Z,101259.41
2023-02-26T22:53:40.027Z,101273.31
2023-02-26T22:56:11.135Z,101267.50
2023-02-26T22:58:41.721Z,101270.05
2023-02-26T23:01:12.331Z,101283.45
2023-02-26T23:03:42.795Z,101273.91
2023-02-26T23:06:15.472Z,101273.19
2023-02-26T23:08:45.912Z,101272.40
2023-02-26T23:11:16.328Z,101269.70
2023-02-26T23:13:46.791Z,101271.30
2023-02-26T23:16:17.355Z,101275.74
2023-02-26T23:18:48.284Z,101276.45
2023-02-26T23:21:18.755Z,101274.31
2023-02-26T23:23:49.411Z,101273.69
2023-02-26T23:26:19.830Z,101279.94
2023-02-26T23:28:51.556Z,101283.27
2023-02-26T23:31:22.239Z,101275.82
2023-02-26T23:33:52.734Z,101280.34
2023-02-26T23:36:23.190Z,101284.31
2023-02-26T23:38:53.747Z,101293.67
2023-02-26T23:41:24.536Z,101296.45
2023-02-26T23:43:55.240Z,101289.00
2023-02-26T23:46:25.765Z,101295.58
2023-02-26T23:48:57.558Z,101298.65
2023-02-26T23:51:29.224Z,101297.08
2023-02-26T23:53:59.664Z,101290.83
2023-02-26T23:56:30.095Z,101293.04
2023-02-26T23:59:00.582Z,101296.22
